createdAt,value
2019-03-31T00:00:06.993Z,99421.83
2019-03-31T00:02:37.299Z,99421.77
2019-03-31T00:05:10.224Z,99434.18
2019-03-31T00:07:40.430Z,99433.52
2019-03-31T00:10:10.555Z,99426.40
2019-03-31T00:12:40.925Z,99423.56
2019-03-31T00:15:11.078Z,99415.67
2019-03-31T00:17:40.826Z,99417.10
2019-03-31T00:20:14.282Z,99420.97
2019-03-31T00:22:46.046Z,99413.44
2019-03-31T00:25:20.505Z,99411.73
2019-03-31T00:27:50.900Z,99418.86
2019-03-31T00:30:25.252Z,99417.74
2019-03-31T00:32:55.707Z,99421.55
2019-03-31T00:35:26.743Z,99418.90
2019-03-31T00:37:57.049Z,99422.03
2019-03-31T00:40:30.509Z,99416.27
2019-03-31T00:43:01.061Z,99423.55
2019-03-31T00:45:33.009Z,99423.08
2019-03-31T00:48:03.009Z,99423.55
2019-03-31T00:50:33.901Z,99424.09
2019-03-31T00:53:07.339Z,99429.41
2019-03-31T00:55:37.359Z,99420.69
2019-03-31T00:58:07.385Z,99424.67
2019-03-31T01:01:00.461Z,99426.30
2019-03-31T01:03:32.955Z,99424.59
2019-03-31T01:06:05.731Z,99428.93
2019-03-31T01:08:38.116Z,99428.84
2019-03-31T01:11:28.483Z,99419.76
2019-03-31T01:14:00.143Z,99423.16
2019-03-31T01:16:34.764Z,99419.46
2019-03-31T01:19:05.144Z,99421.09
2019-03-31T01:21:36.759Z,99418.91
2019-03-31T01:24:07.358Z,99421.25
2019-03-31T01:26:38.273Z,99425.52
2019-03-31T01:29:17.026Z,99428.83
2019-03-31T01:31:54.044Z,99422.69
2019-03-31T01:34:25.440Z,99421.64
2019-03-31T01:36:55.839Z,99422.86
2019-03-31T01:39:29.729Z,99425.57
2019-03-31T01:42:06.286Z,99423.69
2019-03-31T01:44:36.578Z,99419.88
2019-03-31T01:47:06.980Z,99423.16
2019-03-31T01:49:37.438Z,99423.42
2019-03-31T01:52:07.443Z,99426.25
2019-03-31T01:54:39.206Z,99428.27
2019-03-31T01:57:09.804Z,99424.48
2019-03-31T01:59:45.939Z,99421.08
2019-03-31T02:02:29.005Z,99416.83
2019-03-31T02:04:59.597Z,99414.97
2019-03-31T02:07:29.599Z,99421.18
2019-03-31T02:09:59.623Z,99419.67
2019-03-31T02:12:33.603Z,99415.98
2019-03-31T02:15:05.541Z,99420.02
2019-03-31T02:17:43.858Z,99417.55
2019-03-31T02:20:15.725Z,99423.60
2019-03-31T02:22:48.564Z,99419.63
2019-03-31T02:25:18.956Z,99415.56
2019-03-31T02:27:49.500Z,99413.71
2019-03-31T02:30:25.477Z,99415.51
2019-03-31T02:32:55.492Z,99407.85
2019-03-31T02:35:25.248Z,99404.83
2019-03-31T02:37:57.846Z,99403.81
2019-03-31T02:40:28.604Z,99405.70
2019-03-31T02:42:58.978Z,99407.45
2019-03-31T02:45:29.316Z,99404.71
2019-03-31T02:47:59.669Z,99404.44
2019-03-31T02:50:51.008Z,99409.81
2019-03-31T02:53:24.090Z,99406.98
2019-03-31T02:55:58.354Z,99403.73
2019-03-31T02:58:30.369Z,99409.81
2019-03-31T03:01:02.360Z,99409.67
2019-03-31T03:03:36.462Z,99411.89
2019-03-31T03:06:17.801Z,99415.58
2019-03-31T03:08:50.190Z,99420.69
2019-03-31T03:11:21.143Z,99417.47
2019-03-31T03:13:51.971Z,99420.36
2019-03-31T03:16:24.069Z,99420.81
2019-03-31T03:18:54.245Z,99418.77
2019-03-31T03:21:27.673Z,99414.20
2019-03-31T03:23:58.577Z,99409.25
2019-03-31T03:26:29.568Z,99404.63
2019-03-31T03:28:59.832Z,99408.48
2019-03-31T03:31:30.545Z,99419.69
2019-03-31T03:34:01.128Z,99420.05
2019-03-31T03:36:31.430Z,99420.17
2019-03-31T03:39:01.560Z,99423.73
2019-03-31T03:41:35.413Z,99418.86
2019-03-31T03:44:09.553Z,99417.33
2019-03-31T03:46:39.802Z,99415.22
2019-03-31T03:49:10.542Z,99410.84
2019-03-31T03:51:41.830Z,99412.91
2019-03-31T03:54:11.972Z,99418.19
2019-03-31T03:56:43.308Z,99412.31
2019-03-31T03:59:15.945Z,99411.05
2019-03-31T04:01:46.050Z,99410.11
2019-03-31T04:04:17.188Z,99409.99
2019-03-31T04:06:49.526Z,99413.98
2019-03-31T04:09:22.255Z,99418.56
2019-03-31T04:11:51.995Z,99414.41
2019-03-31T04:14:26.546Z,99422.73
2019-03-31T04:16:59.367Z,99412.13
2019-03-31T04:19:31.512Z,99415.69
2019-03-31T04:22:02.068Z,99411.10
2019-03-31T04:24:36.474Z,99414.84
2019-03-31T04:27:06.623Z,99406.98
2019-03-31T04:29:36.984Z,99411.27
2019-03-31T04:32:12.328Z,99409.48
2019-03-31T04:34:44.418Z,99413.44
2019-03-31T04:37:16.472Z,99414.21
2019-03-31T04:39:48.024Z,99415.36
2019-03-31T04:42:21.025Z,99410.94
2019-03-31T04:44:51.899Z,99412.25
2019-03-31T04:47:22.427Z,99416.73
2019-03-31T04:49:53.334Z,99418.59
2019-03-31T04:52:23.400Z,99419.20
2019-03-31T04:54:53.451Z,99420.28
2019-03-31T04:57:23.013Z,99422.86
2019-03-31T04:59:53.017Z,99420.96
2019-03-31T05:02:27.383Z,99420.80
2019-03-31T05:04:57.076Z,99420.75
2019-03-31T05:07:35.653Z,99422.45
2019-03-31T05:10:06.749Z,99424.53
2019-03-31T05:12:36.947Z,99426.40
2019-03-31T05:15:08.002Z,99427.95
2019-03-31T05:17:37.995Z,99433.22
2019-03-31T05:20:11.892Z,99429.77
2019-03-31T05:22:41.870Z,99434.16
2019-03-31T05:25:12.877Z,99437.61
2019-03-31T05:27:43.927Z,99437.30
2019-03-31T05:30:15.504Z,99447.33
2019-03-31T05:32:46.599Z,99445.81
2019-03-31T05:35:19.707Z,99443.88
2019-03-31T05:37:54.039Z,99441.70
2019-03-31T05:40:31.676Z,99448.27
2019-03-31T05:43:03.744Z,99443.80
2019-03-31T05:45:41.205Z,99447.80
2019-03-31T05:48:11.914Z,99447.17
2019-03-31T05:50:43.091Z,99454.84
2019-03-31T05:53:13.390Z,99455.39
2019-03-31T05:55:43.962Z,99462.25
2019-03-31T05:58:14.260Z,99459.85
2019-03-31T06:00:53.433Z,99461.09
2019-03-31T06:03:26.760Z,99463.61
2019-03-31T06:05:56.826Z,99467.91
2019-03-31T06:08:27.938Z,99461.52
2019-03-31T06:10:58.813Z,99464.00
2019-03-31T06:13:33.381Z,99467.56
2019-03-31T06:16:03.936Z,99469.50
2019-03-31T06:18:35.007Z,99467.98
2019-03-31T06:21:07.073Z,99471.47
2019-03-31T06:23:38.727Z,99465.58
2019-03-31T06:26:09.966Z,99470.47
2019-03-31T06:28:40.392Z,99467.80
2019-03-31T06:31:13.031Z,99473.02
2019-03-31T06:33:44.914Z,99470.93
2019-03-31T06:36:20.128Z,99475.43
2019-03-31T06:38:50.225Z,99473.14
2019-03-31T06:41:20.782Z,99475.46
2019-03-31T06:43:52.721Z,99475.74
2019-03-31T06:46:23.264Z,99490.44
2019-03-31T06:48:55.323Z,99487.27
2019-03-31T06:51:25.403Z,99487.12
2019-03-31T06:53:56.266Z,99493.17
2019-03-31T06:56:32.310Z,99494.26
2019-03-31T06:59:06.075Z,99491.30
2019-03-31T07:01:35.807Z,99489.75
2019-03-31T07:04:05.831Z,99487.80
2019-03-31T07:06:35.559Z,99487.47
2019-03-31T07:09:06.756Z,99488.11
2019-03-31T07:11:37.012Z,99490.24
2019-03-31T07:14:07.298Z,99488.77
2019-03-31T07:16:37.662Z,99500.80
2019-03-31T07:19:09.512Z,99507.91
2019-03-31T07:21:40.653Z,99503.66
2019-03-31T07:24:10.489Z,99504.13
2019-03-31T07:26:40.785Z,99507.89
2019-03-31T07:29:10.816Z,99504.47
2019-03-31T07:31:43.461Z,99510.39
2019-03-31T07:34:15.284Z,99511.81
2019-03-31T07:36:48.784Z,99515.41
2019-03-31T07:39:24.070Z,99512.42
2019-03-31T07:41:56.121Z,99515.09
2019-03-31T07:44:31.072Z,99522.02
2019-03-31T07:47:02.864Z,99519.18
2019-03-31T07:49:32.872Z,99522.31
2019-03-31T07:52:03.013Z,99524.09
2019-03-31T07:54:34.349Z,99525.54
2019-03-31T07:57:06.808Z,99525.53
2019-03-31T07:59:37.529Z,99534.07
2019-03-31T08:02:07.915Z,99528.74
2019-03-31T08:04:39.175Z,99533.20
2019-03-31T08:07:08.996Z,99530.13
2019-03-31T08:09:38.775Z,99528.98
2019-03-31T08:12:09.333Z,99533.59
2019-03-31T08:14:40.429Z,99535.87
2019-03-31T08:17:10.167Z,99533.16
2019-03-31T08:19:41.198Z,99532.95
2019-03-31T08:22:10.913Z,99535.10
2019-03-31T08:24:43.804Z,99531.30
2019-03-31T08:27:15.020Z,99538.83
2019-03-31T08:29:51.868Z,99535.20
2019-03-31T08:32:17.107Z,99539.45
2019-03-31T08:34:49.202Z,99542.30
2019-03-31T08:37:19.778Z,99540.42
2019-03-31T08:39:50.152Z,99545.66
2019-03-31T08:42:23.545Z,99552.30
2019-03-31T08:44:54.699Z,99556.30
2019-03-31T08:47:24.519Z,99562.47
2019-03-31T08:49:55.322Z,99562.03
2019-03-31T08:52:25.208Z,99564.50
2019-03-31T08:54:55.683Z,99562.48
2019-03-31T08:57:26.120Z,99560.94
2019-03-31T08:59:56.451Z,99561.69
2019-03-31T09:02:37.983Z,99568.48
2019-03-31T09:05:11.187Z,99573.13
2019-03-31T09:07:43.290Z,99566.11
2019-03-31T09:10:13.282Z,99558.07
2019-03-31T09:12:43.003Z,99563.87
2019-03-31T09:15:13.373Z,99563.50
2019-03-31T09:17:43.106Z,99560.73
2019-03-31T09:20:14.634Z,99561.09
2019-03-31T09:22:44.433Z,99562.94
2019-03-31T09:25:16.505Z,99563.42
2019-03-31T09:27:46.534Z,99564.19
2019-03-31T09:30:17.675Z,99567.66
2019-03-31T09:32:48.734Z,99570.61
2019-03-31T09:35:18.652Z,99577.52
2019-03-31T09:37:49.495Z,99574.73
2019-03-31T09:40:19.302Z,99574.64
2019-03-31T09:42:49.294Z,99576.61
2019-03-31T09:45:20.256Z,99576.75
2019-03-31T09:47:50.551Z,99570.71
2019-03-31T09:50:25.228Z,99570.35
2019-03-31T09:52:55.304Z,99569.97
2019-03-31T09:55:25.098Z,99572.27
2019-03-31T09:57:54.881Z,99569.38
2019-03-31T10:00:43.717Z,99566.28
2019-03-31T10:03:15.892Z,99569.44
2019-03-31T10:05:48.157Z,99568.02
2019-03-31T10:08:21.575Z,99567.89
2019-03-31T10:10:50.169Z,99562.33
2019-03-31T10:13:19.988Z,99561.25
2019-03-31T10:15:49.731Z,99555.27
2019-03-31T10:18:19.814Z,99553.19
2019-03-31T10:20:50.186Z,99552.55
2019-03-31T10:23:19.964Z,99557.84
2019-03-31T10:25:50.438Z,99557.27
2019-03-31T10:28:20.444Z,99558.20
2019-03-31T10:30:51.806Z,99562.66
2019-03-31T10:33:21.838Z,99553.50
2019-03-31T10:35:52.921Z,99546.73
2019-03-31T10:38:24.499Z,99553.91
2019-03-31T10:40:54.258Z,99545.40
2019-03-31T10:43:33.332Z,99543.98
2019-03-31T10:46:03.102Z,99543.39
2019-03-31T10:48:33.188Z,99544.20
2019-03-31T10:51:03.738Z,99540.30
2019-03-31T10:53:33.826Z,99537.81
2019-03-31T10:56:04.209Z,99538.30
2019-03-31T10:58:34.354Z,99532.77
2019-03-31T11:01:06.507Z,99529.83
2019-03-31T11:03:39.835Z,99531.14
2019-03-31T11:06:09.619Z,99531.21
2019-03-31T11:08:40.355Z,99531.59
2019-03-31T11:11:10.597Z,99518.31
2019-03-31T11:13:47.397Z,99528.95
2019-03-31T11:16:18.829Z,99530.63
2019-03-31T11:18:49.095Z,99531.69
2019-03-31T11:21:54.419Z,99533.97
2019-03-31T11:24:25.971Z,99532.83
2019-03-31T11:26:55.833Z,99523.92
2019-03-31T11:29:25.991Z,99526.45
2019-03-31T11:31:56.043Z,99526.20
2019-03-31T11:34:27.039Z,99529.56
2019-03-31T11:36:56.844Z,99524.80
2019-03-31T11:39:26.635Z,99526.49
2019-03-31T11:41:58.253Z,99527.78
2019-03-31T11:44:31.341Z,99528.36
2019-03-31T11:47:01.778Z,99522.69
2019-03-31T11:49:32.848Z,99522.83
2019-03-31T11:52:04.419Z,99525.90
2019-03-31T11:54:34.826Z,99519.08
2019-03-31T11:57:05.645Z,99524.67
2019-03-31T11:59:39.896Z,99515.30
2019-03-31T12:02:10.225Z,99518.31
2019-03-31T12:04:41.928Z,99513.23
2019-03-31T12:07:26.968Z,99519.11
2019-03-31T12:09:47.661Z,99519.95
2019-03-31T12:12:20.451Z,99518.99
2019-03-31T12:15:00.383Z,99523.03
2019-03-31T12:17:21.728Z,99511.20
2019-03-31T12:19:51.462Z,99515.70
2019-03-31T12:22:27.216Z,99512.94
2019-03-31T12:24:59.111Z,99513.61
2019-03-31T12:27:48.151Z,99511.31
2019-03-31T12:30:27.650Z,99513.27
2019-03-31T12:32:59.681Z,99507.44
2019-03-31T12:35:31.494Z,99500.17
2019-03-31T12:38:04.428Z,99508.35
2019-03-31T12:40:39.840Z,99506.98
2019-03-31T12:43:12.277Z,99508.14
2019-03-31T12:45:43.578Z,99505.02
2019-03-31T12:48:27.541Z,99508.49
2019-03-31T12:51:04.594Z,99507.94
2019-03-31T12:53:38.146Z,99509.12
2019-03-31T12:56:08.944Z,99499.95
2019-03-31T12:58:40.958Z,99498.80
2019-03-31T13:01:12.135Z,99503.79
2019-03-31T13:03:45.336Z,99499.43
2019-03-31T13:06:17.810Z,99494.75
2019-03-31T13:08:48.714Z,99496.36
2019-03-31T13:11:19.162Z,99492.05
2019-03-31T13:13:50.753Z,99486.40
2019-03-31T13:16:23.511Z,99488.16
2019-03-31T13:18:53.916Z,99486.28
2019-03-31T13:21:24.553Z,99492.20
2019-03-31T13:23:57.210Z,99490.48
2019-03-31T13:26:29.826Z,99481.22
2019-03-31T13:29:05.407Z,99485.44
2019-03-31T13:31:45.155Z,99489.17
2019-03-31T13:34:18.525Z,99495.48
2019-03-31T13:36:54.035Z,99500.47
2019-03-31T13:39:27.563Z,99498.94
2019-03-31T13:41:57.587Z,99501.41
2019-03-31T13:44:31.961Z,99505.69
2019-03-31T13:47:05.150Z,99503.15
2019-03-31T13:49:38.935Z,99511.69
2019-03-31T13:52:10.283Z,99511.36
2019-03-31T13:54:44.056Z,99501.77
2019-03-31T13:57:16.873Z,99496.74
2019-03-31T13:59:47.944Z,99495.70
2019-03-31T14:02:18.711Z,99494.15
2019-03-31T14:04:51.863Z,99497.53
2019-03-31T14:07:23.237Z,99493.86
2019-03-31T14:09:53.668Z,99490.55
2019-03-31T14:12:25.646Z,99491.20
2019-03-31T14:15:01.870Z,99489.63
2019-03-31T14:17:32.547Z,99498.62
2019-03-31T14:20:03.722Z,99497.75
2019-03-31T14:22:33.866Z,99502.86
2019-03-31T14:25:06.159Z,99510.58
2019-03-31T14:27:38.261Z,99507.03
2019-03-31T14:30:13.451Z,99511.50
2019-03-31T14:32:43.267Z,99511.36
2019-03-31T14:35:16.224Z,99510.08
2019-03-31T14:37:47.812Z,99515.58
2019-03-31T14:40:17.634Z,99502.95
2019-03-31T14:42:48.140Z,99501.73
2019-03-31T14:45:31.809Z,99505.84
2019-03-31T14:48:01.852Z,99503.05
2019-03-31T14:50:42.553Z,99497.68
2019-03-31T14:53:14.687Z,99500.54
2019-03-31T14:55:46.109Z,99506.48
2019-03-31T14:58:16.047Z,99507.18
2019-03-31T15:00:46.322Z,99506.69
2019-03-31T15:03:19.298Z,99509.73
2019-03-31T15:06:02.627Z,99511.61
2019-03-31T15:08:32.527Z,99506.98
2019-03-31T15:11:02.644Z,99515.91
2019-03-31T15:13:33.509Z,99516.13
2019-03-31T15:16:05.358Z,99518.87
2019-03-31T15:18:35.667Z,99516.36
2019-03-31T15:21:11.551Z,99515.66
2019-03-31T15:23:41.299Z,99519.86
2019-03-31T15:26:11.776Z,99516.00
2019-03-31T15:28:45.440Z,99513.41
2019-03-31T15:31:15.531Z,99513.03
2019-03-31T15:33:45.645Z,99514.27
2019-03-31T15:36:15.553Z,99509.19
2019-03-31T15:38:48.407Z,99509.19
2019-03-31T15:41:21.433Z,99515.55
2019-03-31T15:43:50.049Z,99522.48
2019-03-31T15:46:19.848Z,99519.55
2019-03-31T15:48:49.962Z,99515.95
2019-03-31T15:51:21.212Z,99517.25
2019-03-31T15:53:51.546Z,99518.58
2019-03-31T15:56:21.859Z,99527.78
2019-03-31T15:58:52.471Z,99534.90
2019-03-31T16:01:22.970Z,99534.88
2019-03-31T16:03:52.821Z,99533.29
2019-03-31T16:06:22.644Z,99535.42
2019-03-31T16:08:56.459Z,99544.36
2019-03-31T16:11:27.369Z,99542.73
2019-03-31T16:13:56.958Z,99545.70
2019-03-31T16:16:30.632Z,99545.34
2019-03-31T16:19:01.663Z,99546.33
2019-03-31T16:21:31.775Z,99543.34
2019-03-31T16:24:02.599Z,99539.32
2019-03-31T16:26:32.588Z,99530.91
2019-03-31T16:29:02.494Z,99528.47
2019-03-31T16:31:31.925Z,99526.91
2019-03-31T16:34:01.191Z,99525.53
2019-03-31T16:36:33.028Z,99532.16
2019-03-31T16:39:05.432Z,99531.75
2019-03-31T16:41:35.095Z,99534.27
2019-03-31T16:44:04.443Z,99527.13
2019-03-31T16:46:35.590Z,99533.39
2019-03-31T16:49:05.628Z,99527.23
2019-03-31T16:51:37.771Z,99540.97
2019-03-31T16:54:29.929Z,99548.98
2019-03-31T16:57:01.197Z,99546.50
2019-03-31T16:59:30.429Z,99550.69
2019-03-31T17:02:00.443Z,99549.25
2019-03-31T17:04:29.614Z,99562.09
2019-03-31T17:06:58.800Z,99553.49
2019-03-31T17:09:32.227Z,99557.67
2019-03-31T17:12:01.849Z,99563.12
2019-03-31T17:14:31.057Z,99568.13
2019-03-31T17:17:03.462Z,99574.03
2019-03-31T17:19:32.730Z,99573.52
2019-03-31T17:22:02.147Z,99576.91
2019-03-31T17:24:31.753Z,99580.91
2019-03-31T17:27:02.416Z,99572.34
2019-03-31T17:29:32.493Z,99576.88
2019-03-31T17:32:02.698Z,99575.06
2019-03-31T17:34:32.169Z,99574.51
2019-03-31T17:37:03.431Z,99569.84
2019-03-31T17:39:33.075Z,99573.20
2019-03-31T17:42:02.489Z,99572.34
2019-03-31T17:44:31.689Z,99577.02
2019-03-31T17:47:01.262Z,99581.55
2019-03-31T17:49:30.435Z,99574.05
2019-03-31T17:52:01.203Z,99581.06
2019-03-31T17:54:30.744Z,99583.16
2019-03-31T17:57:01.834Z,99589.11
2019-03-31T17:59:32.015Z,99588.46
2019-03-31T18:02:02.013Z,99590.27
2019-03-31T18:04:31.942Z,99595.26
2019-03-31T18:07:14.010Z,99598.86
2019-03-31T18:09:43.562Z,99602.91
2019-03-31T18:12:13.189Z,99613.64
2019-03-31T18:14:45.183Z,99601.71
2019-03-31T18:17:14.828Z,99610.23
2019-03-31T18:19:45.224Z,99606.83
2019-03-31T18:22:16.781Z,99614.91
2019-03-31T18:24:46.861Z,99613.54
2019-03-31T18:27:19.820Z,99614.09
2019-03-31T18:29:50.762Z,99618.85
2019-03-31T18:32:24.147Z,99618.88
2019-03-31T18:34:54.451Z,99627.64
2019-03-31T18:37:25.403Z,99627.05
2019-03-31T18:39:55.849Z,99629.93
2019-03-31T18:42:25.647Z,99634.85
2019-03-31T18:44:57.389Z,99629.36
2019-03-31T18:47:31.902Z,99637.30
2019-03-31T18:50:02.152Z,99642.30
2019-03-31T18:52:32.422Z,99646.62
2019-03-31T18:55:24.732Z,99649.36
2019-03-31T18:58:15.421Z,99649.63
2019-03-31T19:01:04.234Z,99654.03
2019-03-31T19:03:56.268Z,99653.50
2019-03-31T19:07:03.038Z,99660.27
2019-03-31T19:10:01.736Z,99667.61
2019-03-31T19:13:06.242Z,99668.51
2019-03-31T19:15:53.350Z,99669.78
2019-03-31T19:18:42.313Z,99670.55
2019-03-31T19:21:43.456Z,99676.32
2019-03-31T19:24:32.967Z,99672.53
2019-03-31T19:27:30.264Z,99675.32
2019-03-31T19:30:22.936Z,99680.69
2019-03-31T19:33:14.529Z,99678.81
2019-03-31T19:36:05.636Z,99681.23
2019-03-31T19:39:10.916Z,99681.11
2019-03-31T19:41:55.638Z,99679.61
2019-03-31T19:44:47.418Z,99682.39
2019-03-31T19:47:34.302Z,99690.36
2019-03-31T19:50:22.815Z,99694.81
2019-03-31T19:53:06.203Z,99697.08
2019-03-31T19:55:48.757Z,99689.36
2019-03-31T19:58:48.327Z,99687.83
2019-03-31T20:01:52.632Z,99691.62
2019-03-31T20:04:34.800Z,99696.31
2019-03-31T20:07:22.676Z,99699.51
2019-03-31T20:10:23.579Z,99694.77
2019-03-31T20:13:10.684Z,99694.77
2019-03-31T20:16:24.806Z,99692.91
2019-03-31T20:19:29.468Z,99703.39
2019-03-31T20:22:34.198Z,99708.67
2019-03-31T20:25:30.012Z,99712.17
2019-03-31T20:28:20.398Z,99711.32
2019-03-31T20:31:07.386Z,99709.05
2019-03-31T20:33:55.447Z,99710.54
2019-03-31T20:36:48.404Z,99709.84
2019-03-31T20:39:38.970Z,99712.08
2019-03-31T20:42:30.881Z,99712.86
2019-03-31T20:45:02.985Z,99718.31
2019-03-31T20:47:35.806Z,99716.38
2019-03-31T20:50:06.571Z,99719.94
2019-03-31T20:52:36.010Z,99719.00
2019-03-31T20:55:16.364Z,99721.89
2019-03-31T20:57:38.493Z,99724.58
2019-03-31T21:00:08.682Z,99725.34
2019-03-31T21:02:38.401Z,99717.42
2019-03-31T21:05:10.214Z,99721.45
2019-03-31T21:07:40.803Z,99723.89
2019-03-31T21:10:12.303Z,99723.17
2019-03-31T21:12:43.479Z,99719.62
2019-03-31T21:15:16.054Z,99721.75
2019-03-31T21:17:49.261Z,99714.29
2019-03-31T21:20:20.130Z,99724.09
2019-03-31T21:22:50.058Z,99724.49
2019-03-31T21:25:24.359Z,99730.31
2019-03-31T21:27:54.402Z,99728.84
2019-03-31T21:30:24.349Z,99718.89
2019-03-31T21:32:54.460Z,99717.06
2019-03-31T21:35:23.678Z,99725.76
2019-03-31T21:37:53.901Z,99717.70
2019-03-31T21:40:26.792Z,99728.05
2019-03-31T21:42:56.777Z,99725.44
2019-03-31T21:45:28.021Z,99725.94
2019-03-31T21:47:57.193Z,99731.86
2019-03-31T21:50:28.356Z,99721.41
2019-03-31T21:52:58.649Z,99732.39
2019-03-31T21:55:28.128Z,99735.44
2019-03-31T21:57:57.639Z,99726.58
2019-03-31T22:00:46.168Z,99738.66
2019-03-31T22:03:15.915Z,99731.64
2019-03-31T22:05:45.359Z,99736.56
2019-03-31T22:08:15.577Z,99734.58
2019-03-31T22:10:44.873Z,99733.19
2019-03-31T22:13:14.082Z,99734.70
2019-03-31T22:15:43.287Z,99726.58
2019-03-31T22:18:12.831Z,99733.50
2019-03-31T22:20:47.530Z,99723.31
2019-03-31T22:23:17.350Z,99730.53
2019-03-31T22:25:47.307Z,99730.14
2019-03-31T22:28:18.068Z,99730.19
2019-03-31T22:30:51.138Z,99731.90
2019-03-31T22:33:27.656Z,99732.70
2019-03-31T22:36:15.292Z,99725.64
2019-03-31T22:38:47.446Z,99724.91
2019-03-31T22:41:18.491Z,99723.98
2019-03-31T22:43:50.154Z,99723.20
2019-03-31T22:46:19.674Z,99726.08
2019-03-31T22:48:51.496Z,99723.71
2019-03-31T22:51:22.620Z,99725.45
2019-03-31T22:53:52.599Z,99728.97
2019-03-31T22:56:22.953Z,99718.97
2019-03-31T22:58:54.801Z,99723.56
2019-03-31T23:01:24.556Z,99726.00
2019-03-31T23:03:54.288Z,99719.05
2019-03-31T23:06:25.992Z,99717.64
2019-03-31T23:08:55.213Z,99720.14
2019-03-31T23:11:24.660Z,99717.11
2019-03-31T23:13:55.023Z,99713.39
2019-03-31T23:16:25.529Z,99718.45
2019-03-31T23:18:59.730Z,99714.70
2019-03-31T23:21:28.902Z,99713.56
2019-03-31T23:23:59.209Z,99712.31
2019-03-31T23:26:30.264Z,99710.22
2019-03-31T23:29:02.071Z,99704.54
2019-03-31T23:31:32.948Z,99705.38
2019-03-31T23:34:06.407Z,99709.56
2019-03-31T23:36:36.410Z,99714.03
2019-03-31T23:39:07.826Z,99706.78
2019-03-31T23:41:37.545Z,99695.72
2019-03-31T23:44:08.291Z,99703.42
2019-03-31T23:46:40.875Z,99695.97
2019-03-31T23:49:12.622Z,99689.14
2019-03-31T23:51:42.803Z,99690.87
2019-03-31T23:54:13.315Z,99685.34
2019-03-31T23:56:43.043Z,99683.90
2019-03-31T23:59:13.499Z,99688.14
